Time;durP1;ratioP1;P1;durP2;ratioP2;P2;SDS_P1;SDS_P2;PMS_P1;PMS_P2;Temp;Humidity;BMP_temperature;BMP_pressure;BME280_temperature;BME280_humidity;BME280_pressure;Samples;Min_cycle;Max_cycle;Signal;HPM_P1;HPM_P2
2023/12/24 00:00:27;;;;;;;5.73;0.90;;;;;10.40;100530.00;;;;10393695;28;20294;-90
2023/12/24 00:05:29;;;;;;;4.03;1.20;;;;;10.50;100541.00;;;;10406576;28;20305;-89
2023/12/24 00:10:30;;;;;;;4.27;1.40;;;;;10.50;100516.00;;;;10422080;28;20860;-87
2023/12/24 00:15:31;;;;;;;4.90;1.10;;;;;10.50;100512.00;;;;10399772;28;20223;-88
2023/12/24 00:20:33;;;;;;;3.47;0.83;;;;;10.50;100526.00;;;;10407264;28;20229;-88
2023/12/24 00:25:38;;;;;;;5.30;0.80;;;;;10.50;100531.00;;;;10384429;28;20297;-87
2023/12/24 00:30:40;;;;;;;3.70;1.07;;;;;10.40;100524.00;;;;10394834;28;20226;-88
2023/12/24 00:35:41;;;;;;;2.23;0.80;;;;;10.40;100528.00;;;;10402994;28;20226;-87
2023/12/24 00:40:42;;;;;;;3.80;0.90;;;;;10.30;100506.00;;;;10408263;28;20223;-86
2023/12/24 00:45:44;;;;;;;6.50;1.07;;;;;10.30;100503.00;;;;10428784;28;20619;-87
2023/12/24 00:50:45;;;;;;;5.80;1.07;;;;;10.40;100486.00;;;;10406283;28;20222;-88
2023/12/24 00:55:47;;;;;;;4.53;0.90;;;;;10.40;100486.00;;;;10400849;28;20214;-86
2023/12/24 01:00:48;;;;;;;4.20;1.30;;;;;10.40;100460.00;;;;10375140;28;20273;-89
2023/12/24 01:05:49;;;;;;;2.50;1.10;;;;;10.50;100456.00;;;;10403783;28;20222;-88
2023/12/24 01:10:51;;;;;;;4.13;0.90;;;;;10.40;100465.00;;;;10412705;28;20222;-81
2023/12/24 01:15:54;;;;;;;3.83;1.10;;;;;10.40;100463.00;;;;10398896;28;20218;-82
2023/12/24 01:20:56;;;;;;;5.20;1.90;;;;;10.30;100432.00;;;;10371767;28;20892;-82
2023/12/24 01:25:57;;;;;;;3.93;1.93;;;;;10.30;100439.00;;;;10386563;28;20879;-81
2023/12/24 01:30:58;;;;;;;2.17;1.40;;;;;10.30;100427.00;;;;10375965;28;20695;-82
2023/12/24 01:36:00;;;;;;;1.73;1.10;;;;;10.20;100397.00;;;;10385111;28;20221;-82
2023/12/24 01:41:02;;;;;;;3.40;1.07;;;;;10.20;100398.00;;;;10375258;28;21015;-81
2023/12/24 01:46:03;;;;;;;3.00;1.70;;;;;10.10;100395.00;;;;10367584;28;20222;-82
2023/12/24 01:51:04;;;;;;;2.00;1.27;;;;;10.10;100385.00;;;;10373908;28;20959;-83
2023/12/24 01:56:06;;;;;;;3.50;1.63;;;;;10.10;100369.00;;;;10393909;28;20312;-84
2023/12/24 02:01:07;;;;;;;3.03;1.67;;;;;10.10;100374.00;;;;10374666;28;20214;-83
2023/12/24 02:06:09;;;;;;;1.53;1.00;;;;;10.10;100369.00;;;;10380597;28;20226;-83
2023/12/24 02:11:11;;;;;;;1.50;1.10;;;;;10.10;100389.00;;;;10403839;28;20266;-82
2023/12/24 02:16:17;;;;;;;1.07;0.60;;;;;10.00;100392.00;;;;10385892;28;20697;-83
2023/12/24 02:21:18;;;;;;;6.37;1.07;;;;;9.90;100405.00;;;;10395439;28;20614;-81
2023/12/24 02:26:35;;;;;;;1.80;0.80;;;;;9.80;100398.00;;;;10389699;28;20221;-83
2023/12/24 02:31:40;;;;;;;1.43;0.57;;;;;9.70;100401.00;;;;10403172;28;20236;-83
2023/12/24 02:36:43;;;;;;;0.50;0.40;;;;;9.70;100380.00;;;;10391821;28;20737;-84
2023/12/24 02:41:44;;;;;;;0.50;0.40;;;;;9.60;100386.00;;;;10381089;28;21041;-82
2023/12/24 02:46:45;;;;;;;1.70;0.50;;;;;9.60;100377.00;;;;10368870;28;20226;-82
2023/12/24 02:51:46;;;;;;;0.53;0.40;;;;;9.60;100369.00;;;;10389103;28;20259;-82
2023/12/24 02:56:48;;;;;;;1.23;0.70;;;;;9.60;100358.00;;;;10375491;28;20252;-83
2023/12/24 03:01:49;;;;;;;1.17;0.50;;;;;9.60;100368.00;;;;10374888;28;20309;-82
2023/12/24 03:06:50;;;;;;;1.73;0.50;;;;;9.60;100370.00;;;;10392040;28;20252;-82
2023/12/24 03:11:51;;;;;;;0.33;0.33;;;;;9.60;100371.00;;;;10400695;28;20218;-83
2023/12/24 03:16:54;;;;;;;0.50;0.50;;;;;9.60;100357.00;;;;10376205;28;20214;-83
2023/12/24 03:21:56;;;;;;;0.80;0.50;;;;;9.60;100352.00;;;;10366151;28;20264;-85
2023/12/24 03:26:57;;;;;;;1.17;0.60;;;;;9.60;100343.00;;;;10388403;28;20242;-83
2023/12/24 03:31:58;;;;;;;0.43;0.43;;;;;9.60;100331.00;;;;10371607;28;20228;-83
2023/12/24 03:36:59;;;;;;;1.70;0.63;;;;;9.60;100319.00;;;;10392752;28;20221;-85
2023/12/24 03:42:01;;;;;;;1.67;0.40;;;;;9.60;100312.00;;;;10397520;28;20664;-84
2023/12/24 03:47:02;;;;;;;0.50;0.37;;;;;9.60;100297.00;;;;10420620;28;20758;-83
2023/12/24 03:52:05;;;;;;;1.07;0.63;;;;;9.60;100288.00;;;;10418053;28;20863;-84
2023/12/24 03:57:06;;;;;;;0.43;0.43;;;;;9.60;100283.00;;;;10383476;28;20744;-84
2023/12/24 04:02:09;;;;;;;0.70;0.50;;;;;9.60;100260.00;;;;10385430;28;20218;-84
2023/12/24 04:07:10;;;;;;;0.80;0.40;;;;;9.60;100269.00;;;;10387450;28;20219;-85
2023/12/24 04:12:11;;;;;;;0.30;0.30;;;;;9.60;100269.00;;;;10381867;28;20761;-84
2023/12/24 04:17:13;;;;;;;0.90;0.70;;;;;9.70;100273.00;;;;10378745;28;20248;-85
2023/12/24 04:22:14;;;;;;;0.70;0.43;;;;;9.70;100269.00;;;;10386300;28;20230;-85
2023/12/24 04:27:16;;;;;;;1.10;0.70;;;;;9.70;100269.00;;;;10386288;28;20222;-84
2023/12/24 04:32:20;;;;;;;2.83;0.73;;;;;9.60;100264.00;;;;10396532;28;20230;-83
2023/12/24 04:37:21;;;;;;;0.73;0.70;;;;;9.70;100269.00;;;;10383940;28;20984;-82
2023/12/24 04:42:23;;;;;;;1.07;0.83;;;;;9.70;100266.00;;;;10373189;28;20222;-83
2023/12/24 04:47:25;;;;;;;1.57;1.00;;;;;9.70;100269.00;;;;10372418;28;20301;-83
2023/12/24 04:52:27;;;;;;;1.70;1.07;;;;;9.70;100264.00;;;;10386337;28;20230;-82
2023/12/24 04:57:28;;;;;;;1.57;1.10;;;;;9.70;100256.00;;;;10398692;28;20304;-82
2023/12/24 05:02:30;;;;;;;3.50;1.10;;;;;9.70;100256.00;;;;10377776;28;20249;-82
2023/12/24 05:07:31;;;;;;;4.53;1.10;;;;;9.70;100242.00;;;;10390387;28;20808;-83
2023/12/24 05:12:35;;;;;;;3.23;1.30;;;;;9.70;100247.00;;;;10372718;28;20280;-81
2023/12/24 05:17:37;;;;;;;4.13;1.00;;;;;9.70;100247.00;;;;10394984;28;20579;-83
2023/12/24 05:22:38;;;;;;;2.97;1.27;;;;;9.70;100258.00;;;;10371664;28;20215;-83
2023/12/24 05:27:39;;;;;;;2.30;1.30;;;;;9.70;100243.00;;;;10398636;28;20687;-83
2023/12/24 05:32:40;;;;;;;2.07;0.97;;;;;9.70;100237.00;;;;10379768;28;20300;-82
2023/12/24 05:37:42;;;;;;;2.70;1.20;;;;;9.70;100239.00;;;;10391762;28;20218;-82
2023/12/24 05:42:43;;;;;;;5.60;1.00;;;;;9.70;100237.00;;;;10396696;28;20242;-83
2023/12/24 05:47:44;;;;;;;1.77;0.80;;;;;9.70;100237.00;;;;10375723;28;20215;-83
2023/12/24 05:52:45;;;;;;;2.60;1.13;;;;;9.70;100242.00;;;;10412258;28;20225;-83
2023/12/24 05:57:47;;;;;;;0.70;0.70;;;;;9.70;100227.00;;;;10407121;28;20222;-82
2023/12/24 06:02:49;;;;;;;1.63;1.00;;;;;9.70;100230.00;;;;10373432;28;20220;-83
2023/12/24 06:07:51;;;;;;;2.23;0.57;;;;;9.70;100224.00;;;;10382427;28;20225;-82
2023/12/24 06:12:54;;;;;;;2.53;0.90;;;;;9.70;100229.00;;;;10348682;28;20899;-82
2023/12/24 06:17:55;;;;;;;1.07;0.87;;;;;9.70;100239.00;;;;10384568;28;20644;-83
2023/12/24 06:22:57;;;;;;;6.33;1.03;;;;;9.80;100234.00;;;;10392664;28;20304;-84
2023/12/24 06:27:58;;;;;;;1.67;1.20;;;;;9.80;100234.00;;;;10384831;28;20213;-83
2023/12/24 06:32:59;;;;;;;3.27;1.17;;;;;9.80;100219.00;;;;10382489;28;20237;-82
2023/12/24 06:38:01;;;;;;;2.20;1.03;;;;;9.80;100227.00;;;;10391738;28;20750;-82
2023/12/24 06:43:02;;;;;;;1.30;0.80;;;;;9.80;100215.00;;;;10367803;28;20217;-83
2023/12/24 06:48:03;;;;;;;3.40;0.90;;;;;9.80;100210.00;;;;10408555;28;20352;-81
2023/12/24 06:53:05;;;;;;;1.80;1.00;;;;;9.80;100196.00;;;;10394711;28;20826;-78
2023/12/24 06:58:06;;;;;;;1.40;1.13;;;;;9.90;100208.00;;;;10383331;28;20222;-78
2023/12/24 07:03:08;;;;;;;1.77;1.30;;;;;9.90;100203.00;;;;10370766;28;20818;-78
2023/12/24 07:08:09;;;;;;;2.67;1.37;;;;;9.90;100208.00;;;;10388000;28;20601;-78
2023/12/24 07:13:10;;;;;;;2.83;1.20;;;;;9.90;100199.00;;;;10389093;28;20213;-79
2023/12/24 07:18:12;;;;;;;1.73;0.87;;;;;9.90;100198.00;;;;10392153;28;20222;-78
2023/12/24 07:23:13;;;;;;;1.53;1.00;;;;;9.90;100188.00;;;;10402567;28;20222;-81
2023/12/24 07:28:14;;;;;;;1.93;1.20;;;;;9.90;100198.00;;;;10412305;28;20226;-78
2023/12/24 07:33:15;;;;;;;3.00;1.80;;;;;9.90;100210.00;;;;10394803;28;20241;-80
2023/12/24 07:38:17;;;;;;;4.20;1.60;;;;;9.90;100202.00;;;;10391581;28;20288;-80
2023/12/24 07:43:18;;;;;;;2.50;1.60;;;;;10.00;100211.00;;;;10393714;28;20222;-78
2023/12/24 07:48:19;;;;;;;4.40;2.70;;;;;10.00;100199.00;;;;10386515;28;22030;-79
2023/12/24 07:53:21;;;;;;;4.30;2.60;;;;;10.00;100204.00;;;;10372320;28;20233;-80
2023/12/24 07:58:22;;;;;;;5.77;3.20;;;;;10.10;100208.00;;;;10396604;28;20229;-86
2023/12/24 08:03:23;;;;;;;4.00;3.10;;;;;10.10;100186.00;;;;10382820;28;20230;-83
2023/12/24 08:08:24;;;;;;;5.10;3.10;;;;;10.10;100191.00;;;;10402707;28;20268;-84
2023/12/24 08:13:26;;;;;;;3.97;3.03;;;;;10.20;100187.00;;;;10382245;28;20223;-84
2023/12/24 08:18:27;;;;;;;4.73;3.20;;;;;10.20;100204.00;;;;10371197;28;20489;-83
2023/12/24 08:23:28;;;;;;;7.03;3.60;;;;;10.30;100210.00;;;;10375690;28;20730;-86
2023/12/24 08:28:30;;;;;;;9.50;3.50;;;;;10.30;100212.00;;;;10381362;28;20683;-86
2023/12/24 08:33:31;;;;;;;4.80;3.03;;;;;10.30;100199.00;;;;10371820;28;20329;-89
2023/12/24 08:38:32;;;;;;;3.93;2.77;;;;;10.40;100215.00;;;;10398231;28;20241;-83
2023/12/24 08:43:34;;;;;;;5.50;2.80;;;;;10.40;100197.00;;;;10397902;28;20249;-85
2023/12/24 08:48:35;;;;;;;4.23;2.50;;;;;10.50;100197.00;;;;10392347;28;20687;-85
2023/12/24 08:53:36;;;;;;;4.17;2.60;;;;;10.50;100199.00;;;;10397720;28;20650;-86
2023/12/24 08:58:37;;;;;;;4.60;2.70;;;;;10.60;100217.00;;;;10390485;28;20219;-84
2023/12/24 09:03:39;;;;;;;3.73;2.57;;;;;10.60;100213.00;;;;10381277;28;20301;-82
2023/12/24 09:08:40;;;;;;;4.97;1.73;;;;;10.70;100221.00;;;;10381001;28;20210;-90
2023/12/24 09:13:41;;;;;;;3.13;2.10;;;;;10.70;100227.00;;;;10382869;28;20225;-87
2023/12/24 09:18:42;;;;;;;3.30;2.20;;;;;10.80;100217.00;;;;10379094;28;20301;-91
2023/12/24 09:23:43;;;;;;;3.27;1.87;;;;;10.90;100206.00;;;;10396629;28;20566;-90
2023/12/24 09:28:45;;;;;;;3.50;2.47;;;;;11.00;100216.00;;;;10400106;28;20312;-88
2023/12/24 09:33:46;;;;;;;4.70;2.50;;;;;11.00;100213.00;;;;10375995;28;20226;-88
2023/12/24 09:38:47;;;;;;;4.87;2.60;;;;;11.00;100226.00;;;;10389840;28;20267;-89
2023/12/24 09:43:49;;;;;;;6.07;3.20;;;;;11.00;100214.00;;;;10384517;28;20249;-87
2023/12/24 09:48:50;;;;;;;7.70;2.67;;;;;11.10;100217.00;;;;10404267;28;20213;-88
2023/12/24 09:53:54;;;;;;;5.83;3.90;;;;;11.10;100222.00;;;;10381488;28;20632;-90
2023/12/24 09:58:55;;;;;;;6.07;3.40;;;;;11.10;100216.00;;;;10394834;28;20245;-90
2023/12/24 10:03:59;;;;;;;6.93;3.47;;;;;11.10;100228.00;;;;10417545;28;20214;-90
2023/12/24 10:09:01;;;;;;;5.70;3.00;;;;;11.20;100221.00;;;;10390839;28;20264;-87
2023/12/24 10:14:03;;;;;;;9.30;3.60;;;;;11.20;100228.00;;;;10394622;28;20222;-90
2023/12/24 10:19:04;;;;;;;9.17;5.47;;;;;11.20;100226.00;;;;10399277;28;20286;-88
2023/12/24 10:24:06;;;;;;;8.17;5.37;;;;;11.10;100213.00;;;;10396593;28;20636;-89
2023/12/24 10:29:07;;;;;;;8.93;5.90;;;;;11.10;100211.00;;;;10395075;28;20866;-88
2023/12/24 10:34:19;;;;;;;6.13;4.03;;;;;11.10;100204.00;;;;10377237;28;20230;-87
2023/12/24 10:39:26;;;;;;;6.63;3.70;;;;;11.00;100199.00;;;;10386798;28;20230;-89
2023/12/24 10:44:28;;;;;;;7.90;4.20;;;;;11.10;100190.00;;;;10404603;28;20824;-88
2023/12/24 10:49:29;;;;;;;4.67;2.93;;;;;11.00;100168.00;;;;10390238;28;20217;-87
2023/12/24 10:54:31;;;;;;;4.40;3.57;;;;;11.00;100149.00;;;;10384632;28;20226;-89
2023/12/24 11:00:07;;;;;;;5.20;3.90;;;;;11.00;100155.00;;;;10363724;28;20222;-89
2023/12/24 11:05:08;;;;;;;4.60;3.63;;;;;11.00;100138.00;;;;10379879;28;20942;-86
2023/12/24 11:10:38;;;;;;;3.53;3.13;;;;;11.00;100140.00;;;;10385584;28;20833;-85
2023/12/24 11:15:41;;;;;;;6.30;3.57;;;;;11.00;100142.00;;;;10383745;28;20226;-88
2023/12/24 11:20:42;;;;;;;6.43;4.37;;;;;11.00;100138.00;;;;10378443;28;20222;-86
2023/12/24 11:25:50;;;;;;;4.00;2.70;;;;;11.00;100128.00;;;;10392510;28;20222;-87
2023/12/24 11:30:51;;;;;;;3.03;2.07;;;;;11.00;100130.00;;;;10372252;28;20297;-84
2023/12/24 11:35:53;;;;;;;2.93;2.30;;;;;11.00;100129.00;;;;10374173;28;20228;-84
2023/12/24 11:41:04;;;;;;;4.67;2.67;;;;;10.90;100123.00;;;;10388183;28;20252;-84
2023/12/24 11:46:05;;;;;;;4.47;2.57;;;;;10.90;100136.00;;;;10393971;28;20214;-84
2023/12/24 11:51:08;;;;;;;4.23;3.10;;;;;10.90;100131.00;;;;10360283;28;20253;-84
2023/12/24 11:56:16;;;;;;;3.57;2.93;;;;;10.90;100138.00;;;;10386601;28;20580;-82
2023/12/24 12:01:24;;;;;;;5.33;3.50;;;;;11.00;100135.00;;;;10389216;28;20234;-84
2023/12/24 12:06:27;;;;;;;6.37;3.90;;;;;11.00;100126.00;;;;10375971;28;20552;-84
2023/12/24 12:11:28;;;;;;;5.60;4.13;;;;;11.10;100125.00;;;;10391817;28;20234;-84
2023/12/24 12:16:30;;;;;;;3.90;3.03;;;;;11.20;100115.00;;;;10404275;28;20234;-83
2023/12/24 12:21:31;;;;;;;4.33;3.10;;;;;11.30;100126.00;;;;10376800;28;20230;-84
2023/12/24 12:26:32;;;;;;;3.70;3.00;;;;;11.30;100119.00;;;;10393563;28;20969;-85
2023/12/24 12:31:34;;;;;;;5.47;3.17;;;;;11.40;100096.00;;;;10382660;28;20237;-84
2023/12/24 12:36:35;;;;;;;7.67;3.73;;;;;11.60;100110.00;;;;10392613;28;20233;-86
2023/12/24 12:41:36;;;;;;;6.07;3.23;;;;;11.70;100095.00;;;;10382253;28;20252;-78
2023/12/24 12:46:37;;;;;;;5.87;2.77;;;;;11.80;100101.00;;;;10386405;28;20218;-82
2023/12/24 12:51:38;;;;;;;3.07;1.70;;;;;12.00;100102.00;;;;10374377;28;20229;-79
2023/12/24 13:00:56;;;;;;;3.33;1.37;;;;;12.40;100091.00;;;;10521123;27;20618;-78
2023/12/24 13:06:09;;;;;;;3.67;1.30;;;;;12.50;100087.00;;;;10452296;28;20321;-79
2023/12/24 13:11:11;;;;;;;5.43;1.58;;;;;12.50;100096.00;;;;10456084;28;20686;-78
2023/12/24 13:16:12;;;;;;;3.50;1.40;;;;;12.90;100087.00;;;;10465427;28;20255;-82
2023/12/24 13:21:14;;;;;;;1.17;0.93;;;;;13.10;100077.00;;;;10468252;27;20907;-81
2023/12/24 13:26:15;;;;;;;2.75;1.50;;;;;13.00;100083.00;;;;10481203;28;20304;-79
2023/12/24 13:31:18;;;;;;;2.25;0.90;;;;;13.10;100079.00;;;;10471882;28;20214;-79
2023/12/24 13:36:19;;;;;;;3.50;0.82;;;;;13.10;100077.00;;;;10468821;27;20228;-80
2023/12/24 13:41:20;;;;;;;4.30;1.40;;;;;13.00;100089.00;;;;10481441;28;20282;-81
2023/12/24 13:46:22;;;;;;;4.43;1.10;;;;;12.90;100100.00;;;;10457555;28;20910;-77
2023/12/24 13:51:23;;;;;;;1.92;0.90;;;;;12.80;100099.00;;;;10406083;28;20242;-81
2023/12/24 13:56:24;;;;;;;2.80;1.00;;;;;12.70;100101.00;;;;10389976;28;20869;-81
2023/12/24 14:01:25;;;;;;;2.22;1.08;;;;;12.70;100102.00;;;;10416419;28;20586;-82
2023/12/24 14:06:28;;;;;;;1.38;0.85;;;;;12.60;100100.00;;;;10423271;28;20336;-81
2023/12/24 14:11:30;;;;;;;4.05;1.40;;;;;12.60;100107.00;;;;10422313;28;20209;-80
2023/12/24 14:16:32;;;;;;;2.88;1.08;;;;;12.60;100097.00;;;;10433918;28;20222;-82
2023/12/24 14:21:33;;;;;;;1.77;1.10;;;;;12.70;100094.00;;;;10381181;28;20221;-82
2023/12/24 14:26:37;;;;;;;4.30;1.23;;;;;12.70;100084.00;;;;10432358;28;20305;-81
2023/12/24 14:31:38;;;;;;;3.00;1.38;;;;;12.60;100076.00;;;;10428731;28;20225;-83
2023/12/24 14:36:39;;;;;;;4.23;1.80;;;;;12.60;100074.00;;;;10431571;28;20256;-82
2023/12/24 14:41:41;;;;;;;2.58;1.00;;;;;12.60;100080.00;;;;10430340;28;20248;-83
2023/12/24 14:46:42;;;;;;;4.38;1.40;;;;;12.50;100069.00;;;;10429435;28;20269;-84
2023/12/24 14:51:43;;;;;;;4.65;1.15;;;;;12.60;100061.00;;;;10412403;28;20261;-83
2023/12/24 14:56:44;;;;;;;5.03;1.63;;;;;12.50;100061.00;;;;10433697;28;20229;-81
2023/12/24 15:01:46;;;;;;;9.60;1.80;;;;;12.50;100050.00;;;;10413951;28;20245;-80
2023/12/24 15:06:47;;;;;;;9.82;2.63;;;;;12.50;100039.00;;;;10418551;28;20251;-80
2023/12/24 15:11:48;;;;;;;7.33;1.80;;;;;12.50;100043.00;;;;10445767;28;20223;-83
2023/12/24 15:16:49;;;;;;;5.40;1.65;;;;;12.50;100056.00;;;;10424016;28;20232;-81
2023/12/24 15:21:50;;;;;;;4.20;1.48;;;;;12.50;100054.00;;;;10439282;28;20237;-80
2023/12/24 15:26:52;;;;;;;8.07;2.53;;;;;12.50;100078.00;;;;10423534;28;20224;-81
2023/12/24 15:31:54;;;;;;;6.07;1.65;;;;;12.50;100084.00;;;;10432876;28;20222;-81
2023/12/24 15:36:55;;;;;;;8.80;2.13;;;;;12.50;100097.00;;;;10426807;28;20737;-81
2023/12/24 15:41:57;;;;;;;8.15;2.20;;;;;12.50;100105.00;;;;10439763;28;20571;-80
2023/12/24 15:46:58;;;;;;;9.20;2.03;;;;;12.50;100103.00;;;;10417845;28;20241;-81
2023/12/24 15:51:59;;;;;;;4.13;1.80;;;;;12.50;100075.00;;;;10417000;28;20239;-81
2023/12/24 15:57:03;;;;;;;10.80;1.60;;;;;12.40;100104.00;;;;10439232;28;20313;-81
2023/12/24 16:02:04;;;;;;;8.85;2.00;;;;;12.40;100106.00;;;;10380513;28;20242;-81
2023/12/24 16:07:05;;;;;;;7.68;1.73;;;;;12.40;100093.00;;;;10404954;28;20279;-79
2023/12/24 16:12:08;;;;;;;9.18;2.15;;;;;12.30;100080.00;;;;10431481;28;20247;-81
2023/12/24 16:17:09;;;;;;;8.35;1.88;;;;;12.30;100098.00;;;;10441998;28;20260;-82
2023/12/24 16:22:11;;;;;;;4.72;1.55;;;;;12.30;100085.00;;;;10431341;28;20217;-84
2023/12/24 16:27:12;;;;;;;4.23;1.80;;;;;12.40;100084.00;;;;10432048;28;20367;-82
2023/12/24 16:32:14;;;;;;;7.03;2.03;;;;;12.40;100079.00;;;;10437749;28;20228;-81
2023/12/24 16:37:15;;;;;;;7.20;1.70;;;;;12.30;100097.00;;;;10445278;28;20906;-82
2023/12/24 16:42:16;;;;;;;7.23;1.87;;;;;12.30;100091.00;;;;10372477;28;20290;-81
2023/12/24 16:47:18;;;;;;;7.63;1.90;;;;;12.20;100095.00;;;;10416010;28;20224;-81
2023/12/24 16:52:19;;;;;;;6.88;1.92;;;;;12.20;100095.00;;;;10421431;28;20218;-82
2023/12/24 16:57:20;;;;;;;11.20;2.80;;;;;12.10;100114.00;;;;10415134;28;20276;-82
2023/12/24 17:02:21;;;;;;;11.30;3.27;;;;;12.00;100113.00;;;;10433172;28;21779;-80
2023/12/24 17:07:22;;;;;;;8.88;2.72;;;;;12.00;100124.00;;;;10416402;28;20262;-81
2023/12/24 17:12:24;;;;;;;11.80;2.73;;;;;12.00;100115.00;;;;10439671;28;20304;-81
2023/12/24 17:17:25;;;;;;;13.00;2.77;;;;;12.00;100116.00;;;;10408162;28;20300;-82
2023/12/24 17:22:26;;;;;;;16.13;2.92;;;;;12.00;100104.00;;;;10422075;28;20247;-78
2023/12/24 17:27:28;;;;;;;11.25;3.25;;;;;12.00;100109.00;;;;10420760;28;20648;-79
2023/12/24 17:32:29;;;;;;;18.73;4.10;;;;;12.00;100106.00;;;;10448716;28;20221;-78
2023/12/24 17:37:30;;;;;;;11.57;3.10;;;;;11.90;100119.00;;;;10406197;28;21159;-76
2023/12/24 17:42:31;;;;;;;17.45;3.50;;;;;11.90;100134.00;;;;10423885;28;20249;-79
2023/12/24 17:47:34;;;;;;;18.15;3.47;;;;;11.90;100129.00;;;;10426807;28;20217;-80
2023/12/24 17:52:35;;;;;;;14.73;4.00;;;;;11.80;100144.00;;;;10415790;28;20236;-78
2023/12/24 17:57:36;;;;;;;13.97;3.67;;;;;11.70;100147.00;;;;10439082;28;20229;-78
2023/12/24 18:02:37;;;;;;;16.75;4.07;;;;;11.60;100145.00;;;;10414156;28;20899;-78
2023/12/24 18:07:39;;;;;;;19.43;3.33;;;;;11.50;100153.00;;;;10427648;28;20225;-79
2023/12/24 18:12:40;;;;;;;22.20;4.10;;;;;11.30;100157.00;;;;10432852;28;20213;-81
2023/12/24 18:17:41;;;;;;;23.73;4.70;;;;;11.20;100156.00;;;;10451617;28;20244;-76
2023/12/24 18:22:42;;;;;;;16.67;3.93;;;;;11.20;100157.00;;;;10421966;28;20316;-77
2023/12/24 18:27:44;;;;;;;21.87;3.57;;;;;11.20;100159.00;;;;10417030;28;21014;-79
2023/12/24 18:32:45;;;;;;;14.07;3.53;;;;;11.30;100149.00;;;;10418305;28;20228;-84
2023/12/24 18:37:46;;;;;;;16.53;3.57;;;;;11.30;100162.00;;;;10414082;28;20277;-83
2023/12/24 18:42:48;;;;;;;16.27;3.57;;;;;11.20;100170.00;;;;10416729;28;20222;-82
2023/12/24 18:47:49;;;;;;;15.97;3.80;;;;;11.20;100158.00;;;;10427413;28;20217;-82
2023/12/24 18:52:51;;;;;;;14.47;3.27;;;;;11.10;100174.00;;;;10415685;28;20304;-82
2023/12/24 18:57:52;;;;;;;16.37;3.73;;;;;11.10;100179.00;;;;10437838;28;20225;-81
2023/12/24 19:02:53;;;;;;;13.77;3.37;;;;;11.00;100200.00;;;;10417237;28;21006;-82
2023/12/24 19:07:55;;;;;;;9.07;2.60;;;;;11.10;100203.00;;;;10424263;28;20285;-82
2023/12/24 19:12:56;;;;;;;11.37;3.37;;;;;11.10;100217.00;;;;10415115;28;20264;-81
2023/12/24 19:17:58;;;;;;;14.50;3.27;;;;;11.20;100245.00;;;;10419979;28;21078;-84
2023/12/24 19:22:59;;;;;;;12.13;2.43;;;;;11.30;100249.00;;;;10384515;28;20218;-82
2023/12/24 19:28:01;;;;;;;13.23;2.80;;;;;11.40;100238.00;;;;10395699;28;20343;-83
2023/12/24 19:33:03;;;;;;;13.07;2.80;;;;;11.40;100231.00;;;;10372122;28;20573;-81
2023/12/24 19:38:04;;;;;;;11.07;2.73;;;;;11.40;100258.00;;;;10385148;28;20234;-80
2023/12/24 19:43:06;;;;;;;9.77;2.47;;;;;11.50;100257.00;;;;10422644;28;20226;-81
2023/12/24 19:48:07;;;;;;;9.27;2.10;;;;;11.60;100261.00;;;;10425981;28;20932;-81
2023/12/24 19:53:10;;;;;;;11.57;2.30;;;;;11.60;100279.00;;;;10450299;28;20740;-81
2023/12/24 19:58:12;;;;;;;9.40;2.13;;;;;11.60;100257.00;;;;10442155;28;20306;-83
2023/12/24 20:03:13;;;;;;;5.70;2.43;;;;;11.60;100258.00;;;;10424879;28;20296;-81
2023/12/24 20:08:14;;;;;;;7.97;2.23;;;;;11.60;100251.00;;;;10422569;28;20243;-80
2023/12/24 20:13:16;;;;;;;8.50;2.00;;;;;11.60;100262.00;;;;10438204;28;20225;-80
2023/12/24 20:18:17;;;;;;;11.93;2.97;;;;;11.60;100253.00;;;;10414982;28;20249;-81
2023/12/24 20:23:18;;;;;;;9.40;2.07;;;;;11.50;100261.00;;;;10418578;28;20220;-81
2023/12/24 20:28:19;;;;;;;8.00;2.20;;;;;11.50;100257.00;;;;10410021;28;20225;-81
2023/12/24 20:33:22;;;;;;;9.90;3.07;;;;;11.50;100263.00;;;;10429268;28;20251;-82
2023/12/24 20:38:24;;;;;;;5.27;1.93;;;;;11.50;100277.00;;;;10400859;28;20226;-80
2023/12/24 20:43:25;;;;;;;7.97;2.20;;;;;11.50;100266.00;;;;10436780;28;20224;-80
2023/12/24 20:48:26;;;;;;;7.03;3.10;;;;;11.60;100260.00;;;;10410018;28;20221;-81
2023/12/24 20:53:28;;;;;;;4.93;2.30;;;;;11.60;100257.00;;;;10436062;28;20220;-80
2023/12/24 20:58:29;;;;;;;4.87;2.20;;;;;11.50;100267.00;;;;10425154;28;20260;-81
2023/12/24 21:03:30;;;;;;;7.07;2.40;;;;;11.40;100270.00;;;;10422711;28;20301;-78
2023/12/24 21:08:34;;;;;;;6.70;2.23;;;;;11.40;100277.00;;;;10421910;28;20233;-79
2023/12/24 21:13:35;;;;;;;8.20;2.30;;;;;11.30;100287.00;;;;10432032;28;20229;-81
2023/12/24 21:18:36;;;;;;;8.43;2.53;;;;;11.30;100310.00;;;;10418351;28;20222;-78
2023/12/24 21:23:41;;;;;;;6.37;2.27;;;;;11.30;100300.00;;;;10448992;28;20224;-79
2023/12/24 21:28:42;;;;;;;3.40;2.40;;;;;11.20;100323.00;;;;10439429;28;21006;-79
2023/12/24 21:33:46;;;;;;;4.53;2.03;;;;;11.20;100323.00;;;;10422665;28;20296;-80
2023/12/24 21:38:48;;;;;;;6.57;2.33;;;;;11.10;100323.00;;;;10412065;28;20232;-80
2023/12/24 21:43:49;;;;;;;6.57;2.47;;;;;11.10;100314.00;;;;10448315;28;20243;-78
2023/12/24 21:48:51;;;;;;;3.87;2.20;;;;;11.10;100309.00;;;;10432753;28;20234;-77
2023/12/24 21:53:52;;;;;;;5.97;1.80;;;;;11.10;100308.00;;;;10447808;28;20221;-79
2023/12/24 21:58:53;;;;;;;5.83;2.50;;;;;11.10;100311.00;;;;10417889;28;20690;-83
2023/12/24 22:03:55;;;;;;;7.10;2.40;;;;;11.10;100311.00;;;;10427934;28;20209;-85
2023/12/24 22:08:56;;;;;;;5.47;2.03;;;;;11.10;100305.00;;;;10434288;28;20275;-84
2023/12/24 22:13:59;;;;;;;6.40;1.90;;;;;11.10;100312.00;;;;10419046;28;20241;-83
2023/12/24 22:19:00;;;;;;;5.13;2.00;;;;;11.10;100308.00;;;;10378365;28;20251;-84
2023/12/24 22:24:02;;;;;;;9.70;2.30;;;;;11.10;100310.00;;;;10422562;28;20220;-83
2023/12/24 22:29:03;;;;;;;6.37;2.53;;;;;11.10;100311.00;;;;10444276;28;20312;-83
2023/12/24 22:34:04;;;;;;;5.70;1.80;;;;;11.10;100314.00;;;;10419714;28;20218;-83
2023/12/24 22:39:06;;;;;;;4.27;1.73;;;;;11.10;100312.00;;;;10391559;28;20869;-83
2023/12/24 22:44:07;;;;;;;6.83;1.70;;;;;11.10;100302.00;;;;10459824;28;20225;-84
2023/12/24 22:49:09;;;;;;;12.43;2.77;;;;;11.10;100298.00;;;;10457222;28;20251;-85
2023/12/24 22:54:10;;;;;;;7.17;1.97;;;;;11.10;100302.00;;;;10447685;28;20659;-85
2023/12/24 22:59:11;;;;;;;4.90;1.43;;;;;11.10;100297.00;;;;10443902;28;20393;-85
2023/12/24 23:04:13;;;;;;;4.53;1.63;;;;;11.10;100292.00;;;;10450641;28;20779;-84
2023/12/24 23:09:14;;;;;;;4.30;1.50;;;;;11.10;100306.00;;;;10451575;28;20217;-86
2023/12/24 23:14:16;;;;;;;5.27;1.83;;;;;11.10;100298.00;;;;10468569;28;20347;-85
2023/12/24 23:19:17;;;;;;;4.47;1.90;;;;;11.10;100293.00;;;;10462948;28;20225;-88
2023/12/24 23:24:18;;;;;;;5.97;1.90;;;;;11.10;100293.00;;;;10470452;28;20533;-88
2023/12/24 23:29:19;;;;;;;8.03;2.70;;;;;11.20;100309.00;;;;10456982;28;20654;-87
2023/12/24 23:34:21;;;;;;;7.80;2.90;;;;;11.10;100313.00;;;;10455143;28;20237;-84
2023/12/24 23:39:22;;;;;;;4.80;2.67;;;;;11.10;100305.00;;;;10462714;28;20261;-88
2023/12/24 23:44:23;;;;;;;9.67;3.30;;;;;11.20;100295.00;;;;10439570;28;20629;-89
2023/12/24 23:49:25;;;;;;;10.33;3.40;;;;;11.10;100289.00;;;;10427859;28;20283;-85
2023/12/24 23:54:26;;;;;;;7.70;2.90;;;;;11.10;100297.00;;;;10442651;28;20301;-85
2023/12/24 23:59:27;;;;;;;9.37;3.40;;;;;11.10;100275.00;;;;10443150;28;20210;-88
